Terminal Aerodrome Forecast
Issued by NWS Paducah, KY

Home | Current Version | Previous Version | Text Only | Print | Product List | Glossary On
Versions: 1 2 3 4 5 6 7 8 9 10 11 12 13 14 15 16 17 18
197
FTUS43 KPAH 181130
TAFPAH
TAF
KPAH 181130Z 1812/1912 21006KT P6SM VCSH OVC070
     FM181500 22007KT P6SM VCSH BKN030
     FM182000 22007KT P6SM VCSH OVC025
     FM190000 VRB03KT P6SM BKN030
     FM190800 20003KT 3SM BR SCT005 BKN020=

USA.gov is the U.S. government's official web portal to all federal, state and local government web resources and services.